createdAt,value
2023-05-09T00:04:21.006Z,15.06
2023-05-09T00:09:23.750Z,15.03
2023-05-09T00:14:27.832Z,15.12
2023-05-09T00:19:30.818Z,14.85
2023-05-09T00:24:33.536Z,14.81
2023-05-09T00:29:37.734Z,14.75
2023-05-09T00:34:40.522Z,14.87
2023-05-09T00:39:43.223Z,14.62
2023-05-09T00:44:47.376Z,14.85
2023-05-09T00:49:50.530Z,14.56
2023-05-09T00:54:53.581Z,14.71
2023-05-09T00:59:58.253Z,14.82
2023-05-09T01:05:01.961Z,14.39
2023-05-09T01:10:12.878Z,14.34
2023-05-09T01:15:24.213Z,14.31
2023-05-09T01:20:34.453Z,14.13
2023-05-09T01:25:55.494Z,14.25
2023-05-09T01:30:59.886Z,14.18
2023-05-09T01:36:08.451Z,14.16
2023-05-09T01:41:14.965Z,14.19
2023-05-09T01:46:20.655Z,13.87
2023-05-09T01:51:25.382Z,13.74
2023-05-09T01:56:29.493Z,14.00
2023-05-09T02:01:33.972Z,13.62
2023-05-09T02:06:37.892Z,14.08
2023-05-09T02:11:40.941Z,14.00
2023-05-09T02:16:45.113Z,13.83
2023-05-09T02:21:48.283Z,13.86
2023-05-09T02:26:51.444Z,13.67
2023-05-09T02:31:56.119Z,13.62
2023-05-09T02:36:59.074Z,13.43
2023-05-09T02:42:07.874Z,13.25
2023-05-09T02:47:11.978Z,13.20
2023-05-09T02:52:14.989Z,12.99
2023-05-09T02:57:18.074Z,13.21
2023-05-09T03:02:23.665Z,13.39
2023-05-09T03:07:27.755Z,13.10
2023-05-09T03:12:30.568Z,13.08
2023-05-09T03:17:35.435Z,13.23
2023-05-09T03:22:38.367Z,13.02
2023-05-09T03:27:43.977Z,12.93
2023-05-09T03:32:51.625Z,12.81
2023-05-09T03:37:54.766Z,12.62
2023-05-09T03:42:57.745Z,12.88
2023-05-09T03:48:02.956Z,12.88
2023-05-09T03:53:06.462Z,12.87
2023-05-09T03:58:12.725Z,12.90
2023-05-09T04:03:19.610Z,12.74
2023-05-09T04:08:24.940Z,12.63
2023-05-09T04:13:28.162Z,12.49
2023-05-09T04:18:32.651Z,12.49
2023-05-09T04:23:36.170Z,12.61
2023-05-09T04:28:39.038Z,13.03
2023-05-09T04:33:43.749Z,12.75
2023-05-09T04:38:46.666Z,12.57
2023-05-09T04:43:53.716Z,12.62
2023-05-09T04:48:59.763Z,12.68
2023-05-09T04:54:02.716Z,12.48
2023-05-09T04:59:09.130Z,12.47
2023-05-09T05:04:13.283Z,12.71
2023-05-09T05:09:16.979Z,12.61
2023-05-09T05:14:19.845Z,12.93
2023-05-09T05:19:24.147Z,12.90
2023-05-09T05:24:27.152Z,13.03
2023-05-09T05:29:32.273Z,13.46
2023-05-09T05:34:36.645Z,13.59
2023-05-09T05:39:40.020Z,13.60
2023-05-09T05:44:43.168Z,13.48
2023-05-09T05:49:49.333Z,13.49
2023-05-09T05:54:52.670Z,14.69
2023-05-09T05:59:55.695Z,14.88
2023-05-09T06:05:00.181Z,15.80
2023-05-09T06:10:03.262Z,15.56
2023-05-09T06:15:07.371Z,15.55
2023-05-09T06:20:15.892Z,15.13
2023-05-09T06:25:18.746Z,15.32
2023-05-09T06:30:26.187Z,15.87
2023-05-09T06:35:31.233Z,16.85
2023-05-09T06:40:34.060Z,16.61
2023-05-09T06:45:37.067Z,17.40
2023-05-09T06:50:41.213Z,17.71
2023-05-09T06:55:44.083Z,18.34
2023-05-09T07:00:47.425Z,18.07
2023-05-09T07:05:52.442Z,19.61
2023-05-09T07:10:55.369Z,20.98
2023-05-09T07:15:58.339Z,24.26
2023-05-09T07:21:02.773Z,25.23
2023-05-09T07:26:05.899Z,26.52
2023-05-09T07:31:09.422Z,25.89
2023-05-09T07:36:16.151Z,27.34
2023-05-09T07:41:19.351Z,28.79
2023-05-09T07:46:22.213Z,28.19
2023-05-09T07:51:42.954Z,29.06
2023-05-09T07:56:45.893Z,26.90
2023-05-09T08:01:51.705Z,26.54
2023-05-09T08:06:55.887Z,25.13
2023-05-09T08:11:58.687Z,24.25
2023-05-09T08:17:01.494Z,22.39
2023-05-09T08:22:06.356Z,21.63
2023-05-09T08:27:09.457Z,20.22
2023-05-09T08:32:12.244Z,20.04
2023-05-09T08:37:16.486Z,20.04
2023-05-09T08:42:24.772Z,20.22
2023-05-09T08:47:29.792Z,20.21
2023-05-09T08:52:34.913Z,21.01
2023-05-09T08:57:38.365Z,21.01
2023-05-09T09:02:42.806Z,21.41
2023-05-09T09:07:47.653Z,21.87
2023-05-09T09:12:50.941Z,21.16
2023-05-09T09:17:56.528Z,21.98
2023-05-09T09:23:02.204Z,22.28
2023-05-09T09:28:05.842Z,21.94
2023-05-09T09:33:08.663Z,21.68
2023-05-09T09:38:12.800Z,21.62
2023-05-09T09:43:16.086Z,22.05
2023-05-09T09:48:19.313Z,21.98
2023-05-09T09:53:24.969Z,22.39
2023-05-09T09:58:28.045Z,22.47
2023-05-09T10:03:36.674Z,22.64
2023-05-09T10:08:41.136Z,22.67
2023-05-09T10:19:09.132Z,22.36
2023-05-09T10:30:41.138Z,23.30
2023-05-09T10:35:48.904Z,22.97
2023-05-09T10:53:41.364Z,22.83
2023-05-09T10:59:00.458Z,23.34
2023-05-09T11:04:10.075Z,23.06
2023-05-09T11:09:32.750Z,23.04
2023-05-09T11:14:42.452Z,22.82
2023-05-09T11:20:05.466Z,22.96
2023-05-09T11:25:10.390Z,22.93
2023-05-09T11:30:16.850Z,23.41
2023-05-09T11:35:21.387Z,23.78
2023-05-09T11:40:24.283Z,23.64
2023-05-09T11:45:30.276Z,24.23
2023-05-09T11:50:33.371Z,24.24
2023-05-09T11:55:38.905Z,23.87
2023-05-09T12:00:46.750Z,23.85
2023-05-09T12:05:49.335Z,23.78
2023-05-09T12:10:52.526Z,23.41
2023-05-09T12:16:02.974Z,23.63
2023-05-09T12:21:07.157Z,23.67
2023-05-09T12:26:10.962Z,24.10
2023-05-09T12:31:15.563Z,23.97
2023-05-09T12:36:18.733Z,24.03
2023-05-09T12:41:34.799Z,24.03
2023-05-09T12:46:41.586Z,23.96
2023-05-09T12:51:49.588Z,23.46
2023-05-09T12:56:53.534Z,23.94
2023-05-09T13:02:00.048Z,24.04
2023-05-09T13:07:10.269Z,24.10
2023-05-09T13:12:13.125Z,24.28
2023-05-09T13:17:17.261Z,24.54
2023-05-09T13:22:19.997Z,24.75
2023-05-09T13:27:22.883Z,24.47
2023-05-09T13:32:27.318Z,24.75
2023-05-09T13:37:30.233Z,24.63
2023-05-09T13:42:35.303Z,24.70
2023-05-09T13:47:39.472Z,24.39
2023-05-09T13:52:42.273Z,24.44
2023-05-09T13:57:45.186Z,23.95
2023-05-09T14:02:49.769Z,23.90
2023-05-09T14:07:52.684Z,23.81
2023-05-09T14:12:57.021Z,24.10
2023-05-09T14:18:01.612Z,24.34
2023-05-09T14:23:04.605Z,23.87
2023-05-09T14:28:09.284Z,23.83
2023-05-09T14:33:14.412Z,24.44
2023-05-09T14:38:17.240Z,23.96
2023-05-09T14:43:20.223Z,23.94
2023-05-09T14:48:24.505Z,24.45
2023-05-09T14:53:28.607Z,23.96
2023-05-09T14:58:34.570Z,24.16
2023-05-09T15:03:39.360Z,24.18
2023-05-09T15:08:42.269Z,24.01
2023-05-09T15:13:45.057Z,24.31
2023-05-09T15:18:49.204Z,23.93
2023-05-09T15:23:51.941Z,23.97
2023-05-09T15:28:54.672Z,23.75
2023-05-09T15:34:01.397Z,23.45
2023-05-09T15:39:05.089Z,23.47
2023-05-09T15:44:08.211Z,23.30
2023-05-09T15:49:12.797Z,23.75
2023-05-09T15:54:15.662Z,23.81
2023-05-09T15:59:18.777Z,23.49
2023-05-09T16:04:23.136Z,23.56
2023-05-09T16:09:25.857Z,23.50
2023-05-09T16:14:28.766Z,23.40
2023-05-09T16:19:35.721Z,23.12
2023-05-09T16:24:38.696Z,23.47
2023-05-09T16:29:41.620Z,23.65
2023-05-09T16:34:45.676Z,23.39
2023-05-09T16:39:48.487Z,23.30
2023-05-09T16:44:51.249Z,23.09
2023-05-09T16:49:55.287Z,23.09
2023-05-09T16:54:59.319Z,22.91
2023-05-09T17:00:02.422Z,23.12
2023-05-09T17:05:07.566Z,22.78
2023-05-09T17:10:11.170Z,22.72
2023-05-09T17:15:13.976Z,22.56
2023-05-09T17:20:18.299Z,22.52
2023-05-09T17:25:21.260Z,22.70
2023-05-09T17:30:24.440Z,22.69
2023-05-09T17:35:28.612Z,22.53
2023-05-09T17:40:31.398Z,22.21
2023-05-09T17:45:34.222Z,21.99
2023-05-09T17:50:38.343Z,21.89
2023-05-09T17:55:42.541Z,22.34
2023-05-09T18:00:45.686Z,21.69
2023-05-09T18:05:50.546Z,21.98
2023-05-09T18:10:56.658Z,21.78
2023-05-09T18:16:00.683Z,21.66
2023-05-09T18:21:05.437Z,21.44
2023-05-09T18:26:08.822Z,21.45
2023-05-09T18:31:13.205Z,21.00
2023-05-09T18:36:20.584Z,20.97
2023-05-09T18:41:24.138Z,20.95
2023-05-09T18:46:27.994Z,20.70
2023-05-09T18:51:34.004Z,20.82
2023-05-09T18:56:39.332Z,20.60
2023-05-09T19:01:46.114Z,20.50
2023-05-09T19:06:50.870Z,20.45
2023-05-09T19:11:53.757Z,20.22
2023-05-09T19:16:56.692Z,20.35
2023-05-09T19:22:01.229Z,20.22
2023-05-09T19:27:05.120Z,20.11
2023-05-09T19:32:08.310Z,19.97
2023-05-09T19:37:15.510Z,19.91
2023-05-09T19:42:18.487Z,20.00
2023-05-09T19:47:21.345Z,19.94
2023-05-09T19:52:25.596Z,19.65
2023-05-09T19:57:28.666Z,19.52
2023-05-09T20:02:32.917Z,19.55
2023-05-09T20:07:37.184Z,19.37
2023-05-09T20:12:44.470Z,19.33
2023-05-09T20:17:54.249Z,19.39
2023-05-09T20:22:59.130Z,19.10
2023-05-09T20:28:03.863Z,19.15
2023-05-09T20:33:06.803Z,19.14
2023-05-09T20:38:11.134Z,18.98
2023-05-09T20:43:13.935Z,18.91
2023-05-09T20:48:17.113Z,18.81
2023-05-09T20:53:22.364Z,18.82
2023-05-09T20:58:25.165Z,18.47
2023-05-09T21:03:28.082Z,18.49
2023-05-09T21:08:36.678Z,18.59
2023-05-09T21:13:39.613Z,18.36
2023-05-09T21:18:42.490Z,18.52
2023-05-09T21:23:46.621Z,18.56
2023-05-09T21:28:49.421Z,18.73
2023-05-09T21:33:52.792Z,18.71
2023-05-09T21:38:56.952Z,18.53
2023-05-09T21:43:59.691Z,18.55
2023-05-09T21:49:02.815Z,18.43
2023-05-09T21:54:07.166Z,18.49
2023-05-09T21:59:10.038Z,18.32
2023-05-09T22:04:12.794Z,18.28
2023-05-09T22:09:16.921Z,18.32
2023-05-09T22:14:19.685Z,18.37
2023-05-09T22:19:22.493Z,18.34
2023-05-09T22:24:26.866Z,18.07
2023-05-09T22:29:29.626Z,18.26
2023-05-09T22:34:32.631Z,18.30
2023-05-09T22:39:36.739Z,18.21
2023-05-09T22:44:39.569Z,17.88
2023-05-09T22:49:44.019Z,17.81
2023-05-09T22:54:49.844Z,17.82
2023-05-09T22:59:53.219Z,17.59
2023-05-09T23:04:56.078Z,17.78
2023-05-09T23:10:00.490Z,17.47
2023-05-09T23:15:03.444Z,17.41
2023-05-09T23:20:07.546Z,17.47
2023-05-09T23:25:11.883Z,17.70
2023-05-09T23:30:15.005Z,17.38
2023-05-09T23:35:19.156Z,17.42
2023-05-09T23:40:23.580Z,17.35
2023-05-09T23:45:26.788Z,17.12
2023-05-09T23:50:29.526Z,17.30
2023-05-09T23:55:33.577Z,17.06
